Strona główna
METAR-TAF:

METAR-TAF

Lotnisko :

Port lotniczy Yap

Yap, Mikronezja

Szerokość geograficzna: 09-29N, Długość geograficzna: 138-05E, wysokość: 28 m

Aktualna obserwacja pogody

Raport powstał 44 minut temu, godzina 21:50 UTC
Cisza
Temperatura 27°C
Wilgotność 94%
Ciśnienie 1011 hPa
Widzialność: 19.3 km
Mało chmury na wysokości 1600 ft, Cumulusy wypiętrznone.
Przerywane chmury na wysokości 13000 ft
Zachmurzenie całkowite na wysokości 30000 ft

METAR: PTYA 102150Z 00000KT 12SM FEW016TCU BKN130 OVC300 27/26 A2984 RMK TCU W SLP107 T02700255

czas: 08:34 (22:34 UTC)

Prognoza

Raport powstał 5 godziny i 4 minut temu, godzina 17:30 UTC
Prognoza ważna od 10 godzina 18 UTC do 11 godzina 18 UTC
Wiatr 8 kt od wschód
Widzialność: 10 km
Mało chmury na wysokości 1800 ft
Rozproszone chmury na wysokości 5000 ft
przelotny w pobliże

TAF: PTYA 101730Z 1018/1118 08008KT P6SM VCSH FEW018 SCT050

Obserwacja i prognoza pogody dla ponad 4000 lotnisk (raport METAR i TAF).

Dostępne stacje oznaczono żółtymi i czerwonymi punktami na mapie.

Najedź kursorem aby zobaczyć nazwę stacji.

Kliknij aby zobaczyć obserwacje i prognozy pogody.

Aby zmienić mapę: kliknij na zielony przycisk z czarnym krzyżykiem, aby powiększyć; na zielony przycisk z myślnikiem, aby pomniejszyć; na zielone strzałki, aby przejść do map sąsiednich.


METAR-TAF: